createdAt,value
2022-10-10T00:01:05.095Z,101556.75
2022-10-10T00:03:08.564Z,101550.88
2022-10-10T00:05:11.464Z,101514.78
2022-10-10T00:07:14.049Z,101531.13
2022-10-10T00:09:16.772Z,101494.22
2022-10-10T00:11:22.537Z,101576.09
2022-10-10T00:13:26.016Z,101532.31
2022-10-10T00:15:28.835Z,101543.44
2022-10-10T00:17:31.566Z,101498.81
2022-10-10T00:19:34.140Z,101488.56
2022-10-10T00:21:36.708Z,101562.19
2022-10-10T00:23:39.619Z,101520.03
2022-10-10T00:25:42.132Z,101514.38
2022-10-10T00:27:44.736Z,101500.66
2022-10-10T00:29:47.384Z,101519.22
2022-10-10T00:31:49.940Z,101492.00
2022-10-10T00:33:52.568Z,101538.59
2022-10-10T00:35:55.087Z,101546.25
2022-10-10T00:37:57.696Z,101547.47
2022-10-10T00:40:00.288Z,101530.09
2022-10-10T00:42:02.862Z,101518.00
2022-10-10T00:44:16.478Z,101500.66
2022-10-10T00:46:19.016Z,101530.72
2022-10-10T00:48:27.085Z,101547.88
2022-10-10T00:50:31.845Z,101523.25
2022-10-10T00:52:34.424Z,101515.56
2022-10-10T00:54:39.134Z,101518.00
2022-10-10T00:56:54.905Z,101510.94
2022-10-10T00:59:02.652Z,101490.56
2022-10-10T01:01:05.517Z,101452.66
2022-10-10T01:03:08.122Z,101509.94
2022-10-10T01:05:10.703Z,101486.94
2022-10-10T01:07:27.690Z,101518.22
2022-10-10T01:09:31.669Z,101488.91
2022-10-10T01:11:53.268Z,101514.53
2022-10-10T01:14:26.024Z,101522.78
2022-10-10T01:16:45.850Z,101466.31
2022-10-10T01:19:24.749Z,101494.16
2022-10-10T01:21:59.195Z,101451.78
2022-10-10T01:24:59.152Z,101515.72
2022-10-10T01:27:30.990Z,101509.91
2022-10-10T01:29:52.432Z,101468.16
2022-10-10T01:32:02.122Z,101500.84
2022-10-10T01:34:18.855Z,101446.34
2022-10-10T01:36:46.213Z,101475.41
2022-10-10T01:39:15.280Z,101496.19
2022-10-10T01:41:34.545Z,101473.19
2022-10-10T01:43:38.077Z,101465.13
2022-10-10T01:45:49.569Z,101479.00
2022-10-10T01:47:55.403Z,101421.91
2022-10-10T01:50:05.146Z,101465.91
2022-10-10T01:52:48.282Z,101485.47
2022-10-10T01:55:26.201Z,101448.16
2022-10-10T01:58:04.738Z,101486.69
2022-10-10T02:00:13.327Z,101466.94
2022-10-10T02:02:46.728Z,101464.72
2022-10-10T02:05:04.848Z,101446.53
2022-10-10T02:07:22.139Z,101451.81
2022-10-10T02:09:36.687Z,101466.31
2022-10-10T02:11:41.012Z,101469.34
2022-10-10T02:13:57.003Z,101388.63
2022-10-10T02:16:03.073Z,101460.28
2022-10-10T02:18:09.225Z,101446.53
2022-10-10T02:20:13.800Z,101436.47
2022-10-10T02:22:19.595Z,101413.84
2022-10-10T02:24:24.903Z,101369.66
2022-10-10T02:26:30.465Z,101418.31
2022-10-10T02:28:42.306Z,101384.03
2022-10-10T02:30:47.926Z,101436.06
2022-10-10T02:32:58.694Z,101452.19
2022-10-10T02:35:09.436Z,101411.09
2022-10-10T02:37:14.497Z,101424.78
2022-10-10T02:39:20.778Z,101420.78
2022-10-10T02:41:24.081Z,101411.69
2022-10-10T02:43:27.079Z,101411.09
2022-10-10T02:45:30.881Z,101433.28
2022-10-10T02:47:33.454Z,101376.19
2022-10-10T02:49:36.343Z,101415.53
2022-10-10T02:51:39.792Z,101424.81
2022-10-10T02:53:42.359Z,101398.81
2022-10-10T02:55:45.125Z,101354.03
2022-10-10T02:57:47.768Z,101375.22
2022-10-10T02:59:50.323Z,101383.72
2022-10-10T03:01:52.861Z,101382.66
2022-10-10T03:03:55.421Z,101395.78
2022-10-10T03:05:57.969Z,101376.84
2022-10-10T03:08:00.503Z,101340.56
2022-10-10T03:10:04.429Z,101366.34
2022-10-10T03:12:06.938Z,101369.16
2022-10-10T03:14:09.584Z,101368.34
2022-10-10T03:16:12.250Z,101358.69
2022-10-10T03:18:14.982Z,101349.41
2022-10-10T03:20:17.604Z,101356.25
2022-10-10T03:22:20.379Z,101329.88
2022-10-10T03:24:22.934Z,101358.94
2022-10-10T03:26:27.268Z,101353.25
2022-10-10T03:28:29.903Z,101315.59
2022-10-10T03:30:33.493Z,101326.47
2022-10-10T03:32:36.043Z,101335.72
2022-10-10T03:34:39.168Z,101371.63
2022-10-10T03:36:41.686Z,101289.81
2022-10-10T03:38:44.237Z,101341.19
2022-10-10T03:40:46.990Z,101334.94
2022-10-10T03:42:49.883Z,101329.09
2022-10-10T03:44:52.732Z,101330.13
2022-10-10T03:46:55.302Z,101287.41
2022-10-10T03:48:57.904Z,101361.97
2022-10-10T03:51:00.502Z,101264.03
2022-10-10T03:53:03.522Z,101338.56
2022-10-10T03:55:06.615Z,101300.72
2022-10-10T03:57:09.217Z,101312.41
2022-10-10T03:59:12.111Z,101346.25
2022-10-10T04:01:14.901Z,101289.22
2022-10-10T04:03:17.502Z,101300.31
2022-10-10T04:05:20.071Z,101297.28
2022-10-10T04:07:26.624Z,101327.91
2022-10-10T04:09:29.254Z,101278.13
2022-10-10T04:11:31.854Z,101308.56
2022-10-10T04:13:34.544Z,101317.41
2022-10-10T04:15:37.367Z,101303.34
2022-10-10T04:17:40.110Z,101260.47
2022-10-10T04:19:43.555Z,101286.44
2022-10-10T04:21:46.126Z,101286.44
2022-10-10T04:23:49.247Z,101288.44
2022-10-10T04:25:53.229Z,101264.47
2022-10-10T04:28:00.711Z,101290.66
2022-10-10T04:30:05.621Z,101279.16
2022-10-10T04:32:08.225Z,101263.69
2022-10-10T04:34:10.825Z,101267.69
2022-10-10T04:36:13.409Z,101249.38
2022-10-10T04:38:16.787Z,101270.53
2022-10-10T04:40:24.037Z,101266.69
2022-10-10T04:42:28.879Z,101257.44
2022-10-10T04:44:31.646Z,101289.25
2022-10-10T04:46:34.341Z,101291.84
2022-10-10T04:48:40.184Z,101226.63
2022-10-10T04:50:42.735Z,101191.19
2022-10-10T04:52:45.585Z,101245.97
2022-10-10T04:54:48.138Z,101270.91
2022-10-10T04:56:50.678Z,101251.78
2022-10-10T04:58:53.543Z,101227.63
2022-10-10T05:00:56.650Z,101239.09
2022-10-10T05:02:59.256Z,101245.53
2022-10-10T05:05:01.796Z,101240.91
2022-10-10T05:07:04.464Z,101250.59
2022-10-10T05:09:07.028Z,101231.84
2022-10-10T05:11:09.703Z,101254.59
2022-10-10T05:13:15.431Z,101228.22
2022-10-10T05:15:18.919Z,101259.66
2022-10-10T05:17:21.500Z,101123.38
2022-10-10T05:19:24.148Z,101245.56
2022-10-10T05:21:26.688Z,101227.81
2022-10-10T05:23:29.611Z,101233.06
2022-10-10T05:25:32.380Z,101231.84
2022-10-10T05:27:34.938Z,101246.56
2022-10-10T05:29:37.855Z,101222.78
2022-10-10T05:31:40.433Z,101256.63
2022-10-10T05:33:42.987Z,101207.31
2022-10-10T05:35:46.218Z,101250.78
2022-10-10T05:37:48.741Z,101223.19
2022-10-10T05:39:54.920Z,101198.63
2022-10-10T05:41:57.621Z,101226.22
2022-10-10T05:44:00.690Z,101202.47
2022-10-10T05:46:03.430Z,101236.28
2022-10-10T05:48:07.007Z,101190.16
2022-10-10T05:50:33.640Z,101234.28
2022-10-10T05:52:36.514Z,101199.03
2022-10-10T05:54:39.107Z,101212.13
2022-10-10T05:56:42.023Z,101217.16
2022-10-10T05:58:45.192Z,101156.78
2022-10-10T06:00:48.414Z,101215.97
2022-10-10T06:02:51.680Z,101201.28
2022-10-10T06:04:55.358Z,101134.09
2022-10-10T06:06:58.719Z,101179.38
2022-10-10T06:09:01.395Z,101204.53
2022-10-10T06:11:08.176Z,101236.38
2022-10-10T06:13:12.686Z,101200.94
2022-10-10T06:15:15.664Z,101196.69
2022-10-10T06:17:18.286Z,101173.16
2022-10-10T06:19:23.276Z,101179.16
2022-10-10T06:21:29.697Z,101179.31
2022-10-10T06:23:33.096Z,101161.81
2022-10-10T06:25:40.579Z,101193.56
2022-10-10T06:27:44.267Z,101196.72
2022-10-10T06:29:46.873Z,101219.03
2022-10-10T06:31:50.519Z,101191.06
2022-10-10T06:33:53.295Z,101179.16
2022-10-10T06:35:56.051Z,101184.94
2022-10-10T06:37:59.575Z,101213.88
2022-10-10T06:40:02.182Z,101150.75
2022-10-10T06:42:06.045Z,101142.31
2022-10-10T06:44:08.580Z,101186.50
2022-10-10T06:46:41.092Z,100967.72
2022-10-10T06:49:18.337Z,101204.53
2022-10-10T06:52:01.514Z,100952.19
2022-10-10T06:54:50.890Z,100985.13
2022-10-10T06:57:46.674Z,100972.19
2022-10-10T07:00:00.398Z,101146.78
2022-10-10T07:02:04.434Z,101176.44
2022-10-10T07:04:46.320Z,101215.97
2022-10-10T07:10:54.426Z,101070.97
2022-10-10T07:21:52.761Z,100964.91
2022-10-10T07:24:21.957Z,100977.44
2022-10-10T07:26:43.137Z,101109.50
2022-10-10T07:29:02.591Z,101033.47
2022-10-10T07:31:55.748Z,101153.78
2022-10-10T07:34:11.840Z,100973.44
2022-10-10T07:36:49.967Z,100949.75
2022-10-10T07:39:05.740Z,101169.16
2022-10-10T07:43:56.716Z,101202.25
2022-10-10T07:48:05.267Z,101206.94
2022-10-10T07:50:10.329Z,101208.13
2022-10-10T07:52:12.891Z,101171.09
2022-10-10T07:54:15.460Z,101153.38
2022-10-10T07:56:18.158Z,101142.44
2022-10-10T07:58:20.715Z,101156.78
2022-10-10T08:00:23.304Z,101161.88
2022-10-10T08:02:26.774Z,101143.78
2022-10-10T08:04:29.669Z,101167.69
2022-10-10T08:06:32.251Z,101155.13
2022-10-10T08:08:40.812Z,101127.75
2022-10-10T08:10:47.621Z,101160.50
2022-10-10T08:12:50.291Z,101152.28
2022-10-10T08:14:53.342Z,101148.88
2022-10-10T08:16:56.722Z,101162.75
2022-10-10T08:18:59.358Z,101164.72
2022-10-10T08:21:16.058Z,101172.19
2022-10-10T08:23:20.657Z,101158.44
2022-10-10T08:25:27.358Z,101144.84
2022-10-10T08:27:30.126Z,101143.78
2022-10-10T08:29:33.376Z,101172.75
2022-10-10T08:31:36.098Z,101139.66
2022-10-10T08:33:39.888Z,101112.28
2022-10-10T08:35:46.733Z,101133.78
2022-10-10T08:37:49.276Z,101127.13
2022-10-10T08:39:51.841Z,101132.16
2022-10-10T08:42:02.568Z,101161.19
2022-10-10T08:44:25.626Z,101128.22
2022-10-10T08:46:40.396Z,101161.69
2022-10-10T08:48:44.709Z,101128.13
2022-10-10T08:50:56.079Z,101112.31
2022-10-10T08:53:09.613Z,101131.94
2022-10-10T08:55:31.034Z,101158.06
2022-10-10T08:57:44.806Z,101111.56
2022-10-10T08:59:47.541Z,101147.19
2022-10-10T09:02:18.348Z,101155.38
2022-10-10T09:04:21.951Z,101101.72
2022-10-10T09:07:04.402Z,101146.50
2022-10-10T09:09:26.581Z,101142.63
2022-10-10T09:12:17.752Z,101129.88
2022-10-10T09:14:44.762Z,101144.44
2022-10-10T09:17:18.438Z,101125.25
2022-10-10T09:19:43.238Z,100984.16
2022-10-10T09:21:46.914Z,100924.63
2022-10-10T09:23:54.653Z,101138.22
2022-10-10T09:26:11.408Z,101133.97
2022-10-10T09:28:44.511Z,101134.25
2022-10-10T09:30:54.769Z,101102.81
2022-10-10T09:33:01.345Z,101136.13
2022-10-10T09:35:36.077Z,101122.84
2022-10-10T09:37:48.605Z,101119.75
2022-10-10T09:40:06.746Z,101123.03
2022-10-10T09:42:15.930Z,101129.56
2022-10-10T09:44:21.508Z,101106.97
2022-10-10T09:46:25.913Z,101024.78
2022-10-10T09:48:41.292Z,101118.53
2022-10-10T09:50:44.043Z,101022.53
2022-10-10T09:52:48.163Z,101110.63
2022-10-10T09:55:03.611Z,101107.91
2022-10-10T09:57:06.183Z,101112.84
2022-10-10T09:59:46.145Z,101098.47
2022-10-10T10:02:03.784Z,101078.75
2022-10-10T10:04:33.457Z,101080.53
2022-10-10T10:06:37.097Z,101099.72
2022-10-10T10:08:40.045Z,101059.28
2022-10-10T10:10:42.758Z,101088.13
2022-10-10T10:12:46.215Z,101050.41
2022-10-10T10:15:17.808Z,101075.50
2022-10-10T10:17:23.222Z,101018.63
2022-10-10T10:19:39.787Z,101093.16
2022-10-10T10:21:52.307Z,101077.78
2022-10-10T10:24:01.695Z,100999.53
2022-10-10T10:26:24.072Z,101080.41
2022-10-10T10:28:27.811Z,101047.16
2022-10-10T10:30:34.162Z,101060.13
2022-10-10T10:32:53.223Z,100967.50
2022-10-10T10:35:26.901Z,101049.03
2022-10-10T10:37:56.828Z,101085.25
2022-10-10T10:40:16.149Z,101076.25
2022-10-10T10:42:44.280Z,101070.44
2022-10-10T10:45:16.457Z,101030.59
2022-10-10T10:47:43.251Z,101066.56
2022-10-10T10:50:34.604Z,101074.31
2022-10-10T10:53:00.407Z,101035.50
2022-10-10T10:55:17.750Z,101063.25
2022-10-10T10:58:22.318Z,101059.06
2022-10-10T11:01:24.135Z,101065.47
2022-10-10T11:03:34.896Z,101015.59
2022-10-10T11:05:53.589Z,101015.38
2022-10-10T11:08:31.270Z,101059.00
2022-10-10T11:11:08.496Z,101048.66
2022-10-10T11:13:35.561Z,100996.06
2022-10-10T11:16:36.196Z,101001.66
2022-10-10T11:19:48.253Z,100820.75
2022-10-10T11:22:05.598Z,101015.81
2022-10-10T11:24:45.990Z,100991.91
2022-10-10T11:26:57.555Z,100903.22
2022-10-10T11:29:21.913Z,101010.50
2022-10-10T11:31:37.336Z,101026.50
2022-10-10T11:33:50.414Z,101011.88
2022-10-10T11:36:08.644Z,101036.63
2022-10-10T11:38:59.448Z,100904.28
2022-10-10T11:41:29.052Z,100859.94
2022-10-10T11:43:58.229Z,101031.03
2022-10-10T11:46:28.933Z,101031.84
2022-10-10T11:48:48.867Z,101025.97
2022-10-10T11:50:59.874Z,101030.22
2022-10-10T11:53:38.754Z,101028.09
2022-10-10T11:56:40.128Z,101012.69
2022-10-10T11:59:21.667Z,100913.84
2022-10-10T12:01:52.772Z,100842.19
2022-10-10T12:03:57.456Z,100964.91
2022-10-10T12:06:24.310Z,101013.00
2022-10-10T12:09:12.097Z,101009.00
2022-10-10T12:11:53.768Z,101005.81
2022-10-10T12:14:21.870Z,100926.16
2022-10-10T12:16:38.557Z,101001.56
2022-10-10T12:18:46.659Z,101000.75
2022-10-10T12:20:49.282Z,100990.66
2022-10-10T12:23:30.354Z,100948.69
2022-10-10T12:25:43.182Z,100991.97
2022-10-10T12:28:12.609Z,100969.94
2022-10-10T12:30:42.172Z,100973.63
2022-10-10T12:32:50.435Z,100844.88
2022-10-10T12:34:52.952Z,100976.78
2022-10-10T12:37:11.159Z,100987.16
2022-10-10T12:39:13.605Z,100988.75
2022-10-10T12:41:16.877Z,100926.34
2022-10-10T12:43:38.492Z,100972.78
2022-10-10T12:46:07.881Z,100949.41
2022-10-10T12:48:20.433Z,100987.09
2022-10-10T12:50:29.897Z,100976.13
2022-10-10T12:52:52.755Z,100982.25
2022-10-10T12:55:25.667Z,100979.59
2022-10-10T12:57:43.572Z,100933.13
2022-10-10T12:59:47.001Z,100890.94
2022-10-10T13:01:57.807Z,100978.50
2022-10-10T13:04:00.867Z,100968.41
2022-10-10T13:06:15.451Z,100976.94
2022-10-10T13:08:24.789Z,100968.91
2022-10-10T13:10:31.199Z,100958.75
2022-10-10T13:12:34.337Z,100959.25
2022-10-10T13:14:41.282Z,100971.13
2022-10-10T13:16:44.790Z,100936.91
2022-10-10T13:18:58.846Z,100958.13
2022-10-10T13:21:03.639Z,100966.13
2022-10-10T13:23:12.840Z,100946.03
2022-10-10T13:25:21.821Z,100936.22
2022-10-10T13:27:32.420Z,100937.88
2022-10-10T13:29:36.717Z,100958.81
2022-10-10T13:31:39.377Z,100943.38
2022-10-10T13:33:42.353Z,100930.84
2022-10-10T13:35:47.325Z,100957.28
2022-10-10T13:37:59.653Z,100934.81
2022-10-10T13:40:02.966Z,100952.53
2022-10-10T13:42:07.842Z,100902.75
2022-10-10T13:44:15.935Z,100948.63
2022-10-10T13:46:39.851Z,100932.91
2022-10-10T13:48:42.403Z,100929.66
2022-10-10T13:50:44.893Z,100932.63
2022-10-10T13:52:47.504Z,100921.50
2022-10-10T13:54:50.259Z,100919.16
2022-10-10T13:56:52.841Z,100908.56
2022-10-10T13:59:06.145Z,100922.31
2022-10-10T14:01:27.162Z,100935.50
2022-10-10T14:03:40.667Z,100931.78
2022-10-10T14:05:44.579Z,100925.00
2022-10-10T14:07:49.893Z,100938.31
2022-10-10T14:10:05.687Z,100936.47
2022-10-10T14:12:19.522Z,100929.38
2022-10-10T14:14:27.074Z,100932.56
2022-10-10T14:16:29.800Z,100916.44
2022-10-10T14:18:32.365Z,100827.69
2022-10-10T14:20:35.073Z,100817.63
2022-10-10T14:22:37.732Z,100939.63
2022-10-10T14:24:40.718Z,100928.22
2022-10-10T14:26:43.335Z,100925.84
2022-10-10T14:28:46.866Z,100928.22
2022-10-10T14:30:49.474Z,100927.41
2022-10-10T14:32:52.654Z,100795.63
2022-10-10T14:34:55.257Z,100883.91
2022-10-10T14:36:57.801Z,100890.81
2022-10-10T14:39:00.518Z,100768.34
2022-10-10T14:41:03.503Z,100859.03
2022-10-10T14:43:06.300Z,100902.81
2022-10-10T14:45:14.853Z,100881.31
2022-10-10T14:47:23.878Z,100914.22
2022-10-10T14:49:27.016Z,100901.00
2022-10-10T14:51:34.700Z,100761.00
2022-10-10T14:53:39.294Z,100892.50
2022-10-10T14:55:45.797Z,100887.47
2022-10-10T14:57:49.209Z,100894.91
2022-10-10T14:59:51.760Z,100895.72
2022-10-10T15:01:55.662Z,100860.72
2022-10-10T15:03:58.177Z,100883.78
2022-10-10T15:06:00.703Z,100906.84
2022-10-10T15:08:03.693Z,100899.47
2022-10-10T15:12:30.323Z,100897.41
2022-10-10T15:14:36.056Z,100913.06
2022-10-10T15:16:38.637Z,100905.94
2022-10-10T15:18:53.715Z,100907.53
2022-10-10T15:20:57.142Z,100906.47
2022-10-10T15:23:05.592Z,100913.63
2022-10-10T15:25:09.427Z,100900.41
2022-10-10T15:27:11.991Z,100929.84
2022-10-10T15:29:14.555Z,100916.81
2022-10-10T15:31:17.242Z,100895.63
2022-10-10T15:33:19.784Z,100911.00
2022-10-10T15:35:24.759Z,100820.25
2022-10-10T15:37:29.031Z,100852.88
2022-10-10T15:39:36.175Z,100924.28
2022-10-10T15:41:39.211Z,100935.19
2022-10-10T15:43:57.694Z,100931.19
2022-10-10T15:46:09.142Z,100909.44
2022-10-10T15:48:12.129Z,100884.19
2022-10-10T15:50:15.223Z,100911.31
2022-10-10T15:52:19.378Z,100940.22
2022-10-10T15:54:21.899Z,100906.22
2022-10-10T15:56:25.058Z,100940.19
2022-10-10T15:58:27.607Z,100841.97
2022-10-10T16:00:30.441Z,100917.34
2022-10-10T16:02:33.045Z,100919.69
2022-10-10T16:04:35.648Z,100908.28
2022-10-10T16:06:38.165Z,100910.63
2022-10-10T16:08:41.447Z,100805.91
2022-10-10T16:10:44.002Z,100936.06
2022-10-10T16:12:46.663Z,100902.84
2022-10-10T16:14:49.289Z,100825.47
2022-10-10T16:16:51.919Z,100828.03
2022-10-10T16:18:54.487Z,100920.72
2022-10-10T16:20:57.563Z,100886.38
2022-10-10T16:23:00.451Z,100786.47
2022-10-10T16:25:22.005Z,100932.81
2022-10-10T16:27:27.863Z,100935.13
2022-10-10T16:29:30.660Z,100939.63
2022-10-10T16:31:36.627Z,100941.44
2022-10-10T16:33:40.998Z,100931.06
2022-10-10T16:35:44.765Z,100798.38
2022-10-10T16:37:47.302Z,100846.66
2022-10-10T16:39:49.841Z,100919.47
2022-10-10T16:41:52.493Z,100917.34
2022-10-10T16:43:58.362Z,100925.56
2022-10-10T16:46:03.073Z,100927.38
2022-10-10T16:48:05.814Z,100738.50
2022-10-10T16:50:09.567Z,100903.28
2022-10-10T16:52:12.163Z,100864.41
2022-10-10T16:54:14.715Z,100935.63
2022-10-10T16:56:20.703Z,100951.47
2022-10-10T16:58:23.244Z,100744.56
2022-10-10T17:00:25.942Z,100921.44
2022-10-10T17:02:35.718Z,100935.16
2022-10-10T17:04:38.352Z,100946.03
2022-10-10T17:06:40.922Z,100932.44
2022-10-10T17:08:43.646Z,100953.63
2022-10-10T17:10:49.520Z,100946.16
2022-10-10T17:12:52.107Z,100934.97
2022-10-10T17:14:54.673Z,100942.06
2022-10-10T17:17:11.689Z,100950.81
2022-10-10T17:19:15.447Z,100931.66
2022-10-10T17:21:22.792Z,100956.13
2022-10-10T17:23:25.340Z,100917.75
2022-10-10T17:25:28.424Z,100926.53
2022-10-10T17:27:31.798Z,100952.00
2022-10-10T17:29:34.503Z,100925.97
2022-10-10T17:31:37.166Z,100938.22
2022-10-10T17:33:39.930Z,100949.53
2022-10-10T17:35:48.424Z,100946.06
2022-10-10T17:37:51.010Z,100927.34
2022-10-10T17:39:53.775Z,100940.34
2022-10-10T17:41:57.232Z,100932.00
2022-10-10T17:44:00.054Z,100933.91
2022-10-10T17:46:32.544Z,100968.75
2022-10-10T17:48:29.975Z,100922.81
2022-10-10T17:50:36.156Z,100943.63
2022-10-10T17:52:38.783Z,100861.50
2022-10-10T17:54:41.450Z,100850.88
2022-10-10T17:57:10.360Z,100954.06
2022-10-10T17:59:13.288Z,100971.88
2022-10-10T18:01:18.023Z,100847.00
2022-10-10T18:03:20.605Z,100948.53
2022-10-10T18:05:23.264Z,100941.34
2022-10-10T18:07:27.834Z,100970.81
2022-10-10T18:09:30.381Z,100894.69
2022-10-10T18:11:34.821Z,100949.81
2022-10-10T18:13:37.334Z,100963.94
2022-10-10T18:15:41.897Z,100986.41
2022-10-10T18:17:44.478Z,100848.66
2022-10-10T18:20:40.987Z,100999.78
2022-10-10T18:23:12.806Z,100987.53
2022-10-10T18:25:15.354Z,100957.13
2022-10-10T18:27:21.017Z,100926.59
2022-10-10T18:29:23.616Z,100996.69
2022-10-10T18:31:34.350Z,100987.41
2022-10-10T18:33:37.898Z,100933.81
2022-10-10T18:35:43.293Z,100984.47
2022-10-10T18:37:47.195Z,100931.38
2022-10-10T18:39:49.759Z,100906.88
2022-10-10T18:41:52.380Z,100981.78
2022-10-10T18:43:57.173Z,100913.66
2022-10-10T18:46:04.892Z,100972.66
2022-10-10T18:48:07.486Z,101001.44
2022-10-10T18:50:10.333Z,100963.53
2022-10-10T18:52:12.923Z,101002.91
2022-10-10T18:54:18.866Z,100995.56
2022-10-10T18:56:26.190Z,101004.38
2022-10-10T18:58:31.211Z,101033.78
2022-10-10T19:00:34.228Z,101020.91
2022-10-10T19:02:37.164Z,100994.44
2022-10-10T19:04:39.799Z,101022.19
2022-10-10T19:07:08.003Z,101018.84
2022-10-10T19:09:14.248Z,101047.78
2022-10-10T19:11:29.358Z,101042.19
2022-10-10T19:13:33.200Z,101014.13
2022-10-10T19:15:35.862Z,101037.88
2022-10-10T19:17:38.405Z,101022.31
2022-10-10T19:19:40.992Z,100985.66
2022-10-10T19:21:46.323Z,101056.78
2022-10-10T19:23:49.217Z,100900.06
2022-10-10T19:25:52.100Z,101019.34
2022-10-10T19:27:55.063Z,101045.97
2022-10-10T19:29:57.681Z,101062.38
2022-10-10T19:32:00.317Z,101043.75
2022-10-10T19:34:03.182Z,101038.94
2022-10-10T19:36:11.352Z,101048.88
2022-10-10T19:38:15.475Z,101068.84
2022-10-10T19:40:18.207Z,101066.31
2022-10-10T19:42:21.362Z,101036.69
2022-10-10T19:44:23.904Z,101063.09
2022-10-10T19:46:27.808Z,101078.75
2022-10-10T19:48:31.533Z,101034.31
2022-10-10T19:50:34.180Z,101071.44
2022-10-10T19:52:36.718Z,101060.06
2022-10-10T19:54:39.278Z,101048.38
2022-10-10T19:56:41.833Z,101057.06
2022-10-10T19:58:44.449Z,101080.75
2022-10-10T20:00:47.097Z,101056.81
2022-10-10T20:02:51.623Z,101088.16
2022-10-10T20:04:54.279Z,101027.22
2022-10-10T20:07:03.264Z,101054.34
2022-10-10T20:09:10.433Z,101101.25
2022-10-10T20:11:14.317Z,101088.28
2022-10-10T20:13:16.931Z,100990.75
2022-10-10T20:15:19.715Z,101071.63
2022-10-10T20:17:22.502Z,101022.84
2022-10-10T20:19:25.294Z,101101.53
2022-10-10T20:21:32.597Z,101098.31
2022-10-10T20:23:35.217Z,101090.94
2022-10-10T20:25:39.518Z,101107.53
2022-10-10T20:27:42.090Z,101120.78
2022-10-10T20:29:44.680Z,101096.03
2022-10-10T20:31:47.260Z,101097.94
2022-10-10T20:33:52.986Z,101096.41
2022-10-10T20:36:01.403Z,101085.97
2022-10-10T20:38:04.996Z,101104.94
2022-10-10T20:40:10.030Z,101113.50
2022-10-10T20:42:12.644Z,101102.06
2022-10-10T20:44:15.609Z,101058.09
2022-10-10T20:46:18.153Z,101137.22
2022-10-10T20:48:21.677Z,101133.75
2022-10-10T20:50:24.268Z,101125.69
2022-10-10T20:52:26.836Z,101040.88
2022-10-10T20:54:29.424Z,101167.59
2022-10-10T20:56:34.463Z,101191.63
2022-10-10T20:58:38.317Z,101189.69
2022-10-10T21:00:44.742Z,101184.91
2022-10-10T21:02:49.463Z,101190.50
2022-10-10T21:04:52.058Z,101189.38
2022-10-10T21:06:54.600Z,101181.75
2022-10-10T21:09:01.574Z,101181.25
2022-10-10T21:11:09.074Z,101198.06
2022-10-10T21:13:11.627Z,101174.47
2022-10-10T21:15:14.380Z,101174.44
2022-10-10T21:17:17.189Z,101208.84
2022-10-10T21:19:19.925Z,101183.84
2022-10-10T21:21:22.504Z,101104.53
2022-10-10T21:23:51.702Z,101180.63
2022-10-10T21:25:56.813Z,101200.53
2022-10-10T21:27:59.376Z,101099.75
2022-10-10T21:30:01.985Z,101178.94
2022-10-10T21:32:04.592Z,101207.19
2022-10-10T21:34:13.335Z,101210.41
2022-10-10T21:36:18.257Z,101236.69
2022-10-10T21:38:22.754Z,101230.28
2022-10-10T21:40:25.344Z,101197.72
2022-10-10T21:42:27.988Z,101241.69
2022-10-10T21:44:31.029Z,101246.50
2022-10-10T21:46:37.294Z,101244.97
2022-10-10T21:48:40.466Z,101155.88
2022-10-10T21:50:43.042Z,101204.94
2022-10-10T21:52:45.779Z,101246.34
2022-10-10T21:54:48.593Z,101245.31
2022-10-10T21:56:51.192Z,101232.22
2022-10-10T21:58:58.712Z,101244.69
2022-10-10T22:01:25.988Z,101270.56
2022-10-10T22:03:28.580Z,101218.63
2022-10-10T22:05:31.584Z,101230.59
2022-10-10T22:07:34.300Z,101234.25
2022-10-10T22:09:39.945Z,101241.94
2022-10-10T22:11:42.578Z,101273.59
2022-10-10T22:13:45.551Z,101181.31
2022-10-10T22:15:48.448Z,101226.38
2022-10-10T22:17:52.033Z,101270.09
2022-10-10T22:19:55.308Z,101234.00
2022-10-10T22:21:57.934Z,101234.31
2022-10-10T22:24:04.670Z,101286.88
2022-10-10T22:26:10.316Z,101291.69
2022-10-10T22:28:13.144Z,101256.72
2022-10-10T22:30:15.829Z,101223.38
2022-10-10T22:32:19.062Z,101168.69
2022-10-10T22:34:22.045Z,101213.28
2022-10-10T22:36:24.737Z,101272.75
2022-10-10T22:38:27.559Z,101272.47
2022-10-10T22:40:33.258Z,101199.09
2022-10-10T22:42:36.001Z,101271.41
2022-10-10T22:44:38.596Z,101260.94
2022-10-10T22:46:41.309Z,101183.72
2022-10-10T22:48:43.997Z,101298.16
2022-10-10T22:50:46.813Z,101285.25
2022-10-10T22:52:49.479Z,101303.53
2022-10-10T22:55:01.003Z,101318.44
2022-10-10T22:57:03.623Z,101318.13
2022-10-10T22:59:06.226Z,101289.06
2022-10-10T23:01:14.942Z,101329.50
2022-10-10T23:03:19.069Z,101323.78
2022-10-10T23:05:21.562Z,101264.75
2022-10-10T23:07:24.373Z,101317.41
2022-10-10T23:09:28.980Z,101323.94
2022-10-10T23:11:34.399Z,101316.53
2022-10-10T23:13:37.236Z,101346.00
2022-10-10T23:15:39.826Z,101350.91
2022-10-10T23:17:42.588Z,101351.38
2022-10-10T23:19:45.101Z,101358.38
2022-10-10T23:21:47.725Z,101376.09
2022-10-10T23:23:50.608Z,101346.91
2022-10-10T23:25:53.435Z,101379.34
2022-10-10T23:27:56.032Z,101379.28
2022-10-10T23:29:58.576Z,101284.53
2022-10-10T23:32:01.223Z,101392.25
2022-10-10T23:34:03.928Z,101379.44
2022-10-10T23:36:11.613Z,101374.34
2022-10-10T23:38:14.413Z,101273.53
2022-10-10T23:40:18.122Z,101361.81
2022-10-10T23:42:20.961Z,101318.16
2022-10-10T23:44:23.749Z,101403.13
2022-10-10T23:46:27.767Z,101306.41
2022-10-10T23:48:30.490Z,101261.34
2022-10-10T23:50:39.173Z,101391.53
2022-10-10T23:52:42.858Z,101424.09
2022-10-10T23:54:48.080Z,101443.50
2022-10-10T23:56:50.908Z,101304.19
2022-10-10T23:59:14.386Z,101373.91
